Time;durP1;ratioP1;P1;durP2;ratioP2;P2;SDS_P1;SDS_P2;PMS_P1;PMS_P2;Temp;Humidity;BMP_temperature;BMP_pressure;BME280_temperature;BME280_humidity;BME280_pressure;Samples;Min_cycle;Max_cycle;Signal;HPM_P1;HPM_P2
2022/06/12 00:02:19;;;;;;;16.58;3.60;;;12.70;78.90;;;;;;4954240;29;20495;-77
2022/06/12 00:04:46;;;;;;;20.80;4.18;;;12.80;78.90;;;;;;4953199;29;20058;-78
2022/06/12 00:07:14;;;;;;;20.23;3.80;;;12.80;78.90;;;;;;4954302;29;20062;-78
2022/06/12 00:09:42;;;;;;;10.70;3.13;;;12.80;78.90;;;;;;4954239;29;20054;-78
2022/06/12 00:12:10;;;;;;;15.52;3.42;;;12.80;78.90;;;;;;4947609;29;20047;-78
2022/06/12 00:14:38;;;;;;;20.80;3.60;;;12.80;78.90;;;;;;4952871;28;20051;-77
2022/06/12 00:17:06;;;;;;;15.68;3.30;;;12.90;78.80;;;;;;4952779;28;20501;-78
2022/06/12 00:19:34;;;;;;;20.73;3.38;;;12.80;78.90;;;;;;4952046;29;20053;-78
2022/06/12 00:22:02;;;;;;;14.77;2.72;;;12.90;78.80;;;;;;4954377;29;20131;-78
2022/06/12 00:24:30;;;;;;;21.90;3.53;;;12.90;78.80;;;;;;4955452;29;20067;-77
2022/06/12 00:26:58;;;;;;;16.85;3.75;;;12.90;78.70;;;;;;4956334;28;20043;-78
2022/06/12 00:29:32;;;;;;;19.52;3.47;;;12.90;78.70;;;;;;4953099;29;20505;-78
2022/06/12 00:32:06;;;;;;;15.20;3.05;;;12.90;79.00;;;;;;4953070;29;20043;-77
2022/06/12 00:34:49;;;;;;;29.40;4.07;;;12.90;79.10;;;;;;4953485;29;20063;-78
2022/06/12 00:37:19;;;;;;;17.77;3.93;;;12.90;79.10;;;;;;4953329;28;20547;-78
2022/06/12 00:39:49;;;;;;;16.48;3.42;;;12.90;79.10;;;;;;4939099;29;20783;-78
2022/06/12 00:42:33;;;;;;;14.30;3.63;;;12.90;79.10;;;;;;4934706;29;20044;-78
2022/06/12 00:45:23;;;;;;;15.75;3.60;;;12.90;79.20;;;;;;4942729;29;20055;-78
2022/06/12 00:47:54;;;;;;;22.08;4.30;;;12.90;79.30;;;;;;4940859;29;20067;-79
2022/06/12 00:50:21;;;;;;;23.05;4.13;;;12.80;79.50;;;;;;4952545;29;20064;-78
2022/06/12 00:52:52;;;;;;;14.35;3.53;;;12.80;79.80;;;;;;4953994;29;20048;-79
2022/06/12 00:55:31;;;;;;;22.92;4.13;;;12.80;80.00;;;;;;4952962;28;20508;-78
2022/06/12 00:58:07;;;;;;;22.60;4.45;;;12.80;80.10;;;;;;4952845;29;20417;-78
2022/06/12 01:00:37;;;;;;;17.25;3.42;;;12.80;80.30;;;;;;4954290;29;20043;-78
2022/06/12 01:03:05;;;;;;;21.25;3.90;;;12.80;80.40;;;;;;4952867;29;20047;-77
2022/06/12 01:08:20;;;;;;;18.25;4.13;;;12.80;80.50;;;;;;4953795;29;20133;-79
2022/06/12 01:10:54;;;;;;;15.88;3.55;;;12.80;80.60;;;;;;4952502;28;20055;-79
2022/06/12 01:13:28;;;;;;;18.52;4.15;;;12.80;81.00;;;;;;4953468;28;20054;-79
2022/06/12 01:16:00;;;;;;;17.30;4.00;;;12.80;81.10;;;;;;4952002;29;20495;-78
2022/06/12 01:18:35;;;;;;;25.15;3.88;;;12.70;81.20;;;;;;4953660;29;20063;-79
2022/06/12 01:21:39;;;;;;;24.77;4.00;;;12.70;81.40;;;;;;4953684;29;20485;-78
2022/06/12 01:24:10;;;;;;;17.70;3.75;;;12.70;81.40;;;;;;4954127;29;20062;-78
2022/06/12 01:27:05;;;;;;;21.92;4.32;;;12.60;81.50;;;;;;4954389;28;20047;-78
2022/06/12 01:29:45;;;;;;;18.25;3.90;;;12.70;81.60;;;;;;4957584;28;20051;-78
2022/06/12 01:32:30;;;;;;;22.27;4.57;;;12.60;81.60;;;;;;4957354;29;20039;-79
2022/06/12 01:35:13;;;;;;;16.38;4.10;;;12.70;81.60;;;;;;4957020;29;20051;-78
2022/06/12 01:38:19;;;;;;;20.40;4.00;;;12.60;81.60;;;;;;4956364;29;20043;-78
2022/06/12 01:40:58;;;;;;;29.55;4.50;;;12.60;81.70;;;;;;4947056;29;20297;-78
2022/06/12 01:43:38;;;;;;;21.98;4.60;;;12.70;81.60;;;;;;4960525;29;20055;-78
2022/06/12 01:46:15;;;;;;;17.08;4.43;;;12.70;81.70;;;;;;4962642;29;20054;-77
2022/06/12 01:49:05;;;;;;;18.63;4.45;;;12.70;81.70;;;;;;4964472;29;20132;-78
2022/06/12 01:51:48;;;;;;;23.58;4.57;;;12.70;81.70;;;;;;4963187;29;20047;-77
2022/06/12 01:54:22;;;;;;;20.88;4.15;;;12.70;81.60;;;;;;4963417;29;20058;-78
2022/06/12 01:57:13;;;;;;;21.35;4.10;;;12.70;81.70;;;;;;4963806;29;20062;-78
2022/06/12 01:59:54;;;;;;;20.02;4.05;;;12.60;81.60;;;;;;4943785;29;20047;-78
2022/06/12 02:02:30;;;;;;;17.98;4.43;;;12.70;81.70;;;;;;4961051;29;20127;-78
2022/06/12 02:05:06;;;;;;;18.40;4.38;;;12.70;81.60;;;;;;4958543;29;20051;-78
2022/06/12 02:07:38;;;;;;;17.20;4.13;;;12.70;81.60;;;;;;4956859;29;20051;-78
2022/06/12 02:10:13;;;;;;;18.67;3.97;;;12.70;81.70;;;;;;4956105;29;20054;-78
2022/06/12 02:15:37;;;;;;;16.95;4.05;;;12.70;81.60;;;;;;4942519;29;20062;-78
2022/06/12 02:18:10;;;;;;;20.05;4.68;;;12.70;81.60;;;;;;4956201;29;20062;-78
2022/06/12 02:20:43;;;;;;;26.30;4.95;;;12.70;81.70;;;;;;4956415;29;20046;-78
2022/06/12 02:23:26;;;;;;;18.65;3.92;;;12.60;81.80;;;;;;4955474;28;20051;-78
2022/06/12 02:25:55;;;;;;;24.70;4.80;;;12.70;81.90;;;;;;4955624;29;20054;-79
2022/06/12 02:28:31;;;;;;;24.88;4.05;;;12.70;82.20;;;;;;4961120;29;20290;-78
2022/06/12 02:31:05;;;;;;;28.08;4.90;;;12.70;82.30;;;;;;4954846;29;20055;-78
2022/06/12 02:33:40;;;;;;;23.77;4.88;;;12.70;82.20;;;;;;4955722;29;20058;-78
2022/06/12 02:36:14;;;;;;;25.42;4.53;;;12.70;82.30;;;;;;4955536;29;20047;-78
2022/06/12 02:38:49;;;;;;;16.60;4.00;;;12.70;82.30;;;;;;4953061;28;20062;-78
2022/06/12 02:41:37;;;;;;;18.95;4.05;;;12.70;82.50;;;;;;4955319;29;20087;-79
2022/06/12 02:44:13;;;;;;;19.20;4.53;;;12.70;82.50;;;;;;4945157;29;20046;-81
2022/06/12 02:46:57;;;;;;;18.08;4.30;;;12.80;82.40;;;;;;4955222;28;20051;-78
2022/06/12 02:49:24;;;;;;;;;;;12.70;82.40;;;;;;4955376;28;20051;-79
2022/06/12 02:52:06;;;;;;;23.83;5.03;;;12.70;82.40;;;;;;4954304;29;20377;-78
2022/06/12 02:54:46;;;;;;;24.20;4.70;;;12.70;82.50;;;;;;4954982;29;20043;-77
2022/06/12 02:57:27;;;;;;;27.08;4.78;;;12.70;82.60;;;;;;4950706;28;20059;-77
2022/06/12 03:00:34;;;;;;;28.58;4.55;;;12.70;82.60;;;;;;4936007;29;20055;-78
2022/06/12 03:03:30;;;;;;;17.90;3.92;;;12.70;82.70;;;;;;4913942;29;20055;-78
2022/06/12 03:05:59;;;;;;;24.90;5.72;;;12.60;82.80;;;;;;4954357;29;20058;-77
2022/06/12 03:08:42;;;;;;;24.23;5.05;;;12.50;82.80;;;;;;4955366;29;20070;-77
2022/06/12 03:11:22;;;;;;;26.33;5.38;;;12.50;83.00;;;;;;4955368;29;20055;-77
2022/06/12 03:13:51;;;;;;;18.85;4.45;;;12.50;82.90;;;;;;4953268;29;20062;-77
2022/06/12 03:16:24;;;;;;;26.83;5.45;;;12.50;82.90;;;;;;4955038;29;20432;-77
2022/06/12 03:18:56;;;;;;;;;;;12.40;83.00;;;;;;4954186;29;20062;-77
2022/06/12 03:21:39;;;;;;;24.55;4.63;;;12.30;83.00;;;;;;4954965;28;19923;-78
2022/06/12 03:24:30;;;;;;;21.15;4.40;;;12.30;83.00;;;;;;4953979;29;20043;-77
2022/06/12 03:27:15;;;;;;;24.25;4.72;;;12.30;83.30;;;;;;4946245;29;20047;-77
2022/06/12 03:30:18;;;;;;;22.08;4.32;;;12.30;83.50;;;;;;4953343;29;20043;-77
2022/06/12 03:33:04;;;;;;;22.88;5.03;;;12.20;83.70;;;;;;4895351;29;20526;-77
2022/06/12 03:35:56;;;;;;;26.75;5.88;;;12.30;83.80;;;;;;4895615;29;20052;-77
2022/06/12 03:38:37;;;;;;;25.77;4.95;;;12.20;83.90;;;;;;4880110;29;20056;-78
2022/06/12 03:41:44;;;;;;;22.85;5.45;;;12.20;83.90;;;;;;4895693;29;20048;-78
2022/06/12 03:44:21;;;;;;;26.35;5.35;;;12.20;84.00;;;;;;4876698;29;20056;-78
2022/06/12 03:47:12;;;;;;;24.38;5.22;;;12.10;84.30;;;;;;4876768;29;20060;-78
2022/06/12 03:50:03;;;;;;;23.73;5.43;;;12.10;84.40;;;;;;4846388;29;20064;-77
2022/06/12 03:53:01;;;;;;;29.60;5.90;;;12.00;84.60;;;;;;4893240;29;20052;-78
2022/06/12 03:58:38;;;;;;;37.17;6.85;;;12.00;85.00;;;;;;4894669;29;20052;-77
2022/06/12 04:01:07;;;;;;;35.58;6.07;;;11.90;85.10;;;;;;4894706;29;20059;-77
2022/06/12 04:03:40;;;;;;;27.38;6.43;;;11.90;85.40;;;;;;4893911;29;20498;-77
2022/06/12 04:06:14;;;;;;;30.65;6.28;;;11.90;85.60;;;;;;4894503;29;20506;-77
2022/06/12 04:09:00;;;;;;;27.40;5.38;;;11.80;85.60;;;;;;4918921;29;20052;-77
2022/06/12 04:11:31;;;;;;;26.35;5.80;;;11.80;85.60;;;;;;4946752;29;20059;-77
2022/06/12 04:14:01;;;;;;;26.88;5.88;;;11.80;85.70;;;;;;4954112;29;20051;-78
2022/06/12 04:16:36;;;;;;;24.20;6.70;;;11.80;85.80;;;;;;4954153;29;20551;-77
2022/06/12 04:19:11;;;;;;;35.40;5.78;;;11.80;85.80;;;;;;4954152;28;20058;-78
2022/06/12 04:22:07;;;;;;;27.05;5.72;;;11.80;85.90;;;;;;4952806;29;20085;-77
2022/06/12 04:24:47;;;;;;;25.80;5.97;;;11.80;85.90;;;;;;4947327;29;20055;-77
2022/06/12 04:27:32;;;;;;;31.30;5.70;;;11.70;86.00;;;;;;4953864;29;20054;-77
2022/06/12 04:30:15;;;;;;;29.08;5.60;;;11.70;86.00;;;;;;4955562;28;20402;-77
2022/06/12 04:32:42;;;;;;;28.17;6.20;;;11.70;86.00;;;;;;4954944;29;20135;-77
2022/06/12 04:35:10;;;;;;;21.38;5.65;;;11.70;86.00;;;;;;4953815;28;20051;-77
2022/06/12 04:37:38;;;;;;;32.75;6.30;;;11.70;86.00;;;;;;4954074;29;20055;-78
2022/06/12 04:40:07;;;;;;;22.42;5.07;;;11.80;86.00;;;;;;4954029;29;20047;-78
2022/06/12 04:42:35;;;;;;;29.73;5.75;;;11.80;85.90;;;;;;4953589;29;20047;-78
2022/06/12 04:45:05;;;;;;;30.70;5.78;;;11.80;85.80;;;;;;4954130;29;20047;-78
2022/06/12 04:47:33;;;;;;;32.53;6.35;;;11.80;85.70;;;;;;4952779;29;20539;-77
2022/06/12 04:50:00;;;;;;;23.33;4.93;;;11.90;85.50;;;;;;4953097;28;20505;-78
2022/06/12 04:52:30;;;;;;;18.27;4.38;;;11.90;85.30;;;;;;4953121;29;20066;-78
2022/06/12 04:54:58;;;;;;;26.75;5.18;;;12.10;85.10;;;;;;4954042;29;20413;-78
2022/06/12 04:57:25;;;;;;;19.80;4.20;;;12.10;84.80;;;;;;4953859;29;20051;-78
2022/06/12 04:59:53;;;;;;;18.85;4.07;;;12.10;84.50;;;;;;4953538;29;20055;-78
2022/06/12 05:02:23;;;;;;;22.65;4.53;;;12.20;84.30;;;;;;4955992;28;20176;-79
2022/06/12 05:04:52;;;;;;;20.15;4.35;;;12.30;83.90;;;;;;4956470;29;20062;-79
2022/06/12 05:07:20;;;;;;;18.83;4.28;;;12.30;83.50;;;;;;4957535;29;20489;-78
2022/06/12 05:09:47;;;;;;;29.95;4.80;;;12.30;83.10;;;;;;4957142;29;20043;-78
2022/06/12 05:12:15;;;;;;;23.15;3.70;;;12.40;82.80;;;;;;4956971;29;20519;-78
2022/06/12 05:14:43;;;;;;;18.02;3.28;;;12.40;82.40;;;;;;4957189;29;20063;-78
2022/06/12 05:17:20;;;;;;;17.60;3.28;;;12.50;81.70;;;;;;4957479;29;20058;-79
2022/06/12 05:19:48;;;;;;;13.52;3.60;;;12.50;81.40;;;;;;4957435;29;20047;-79
2022/06/12 05:22:16;;;;;;;11.60;3.47;;;12.50;81.00;;;;;;4957222;29;20404;-79
2022/06/12 05:24:45;;;;;;;14.55;3.78;;;12.60;80.80;;;;;;4956819;29;20422;-78
2022/06/12 05:27:17;;;;;;;11.57;2.95;;;12.60;80.50;;;;;;4956113;29;20051;-79
2022/06/12 05:29:46;;;;;;;13.65;3.72;;;12.70;80.50;;;;;;4956883;28;20059;-78
2022/06/12 05:32:16;;;;;;;17.17;4.00;;;12.70;80.30;;;;;;4955625;29;20054;-79
2022/06/12 05:34:44;;;;;;;18.23;3.88;;;12.70;80.30;;;;;;4956755;29;20043;-78
2022/06/12 05:37:12;;;;;;;18.08;3.60;;;12.80;80.30;;;;;;4956209;28;20051;-78
2022/06/12 05:39:40;;;;;;;15.93;3.35;;;12.80;80.10;;;;;;4956448;28;20055;-78
2022/06/12 05:42:08;;;;;;;22.80;4.45;;;12.80;80.00;;;;;;4956945;29;20054;-78
2022/06/12 05:44:38;;;;;;;17.25;3.85;;;12.70;80.00;;;;;;4956253;29;20481;-78
2022/06/12 05:47:06;;;;;;;20.02;3.90;;;12.70;79.90;;;;;;4955790;29;20394;-78
2022/06/12 05:49:34;;;;;;;13.45;3.88;;;12.70;80.00;;;;;;4955607;29;20400;-78
2022/06/12 05:52:02;;;;;;;17.42;3.70;;;12.70;80.00;;;;;;4956362;29;20062;-78
2022/06/12 05:54:30;;;;;;;18.88;4.18;;;12.70;80.00;;;;;;4956662;29;20047;-78
2022/06/12 05:56:57;;;;;;;15.32;3.63;;;12.80;79.70;;;;;;4956834;29;20044;-78
2022/06/12 05:59:25;;;;;;;21.45;3.50;;;12.90;79.60;;;;;;4956520;29;20062;-79
2022/06/12 06:01:53;;;;;;;18.52;3.40;;;13.00;79.30;;;;;;4955494;29;20051;-79
2022/06/12 06:04:20;;;;;;;15.70;3.67;;;13.10;78.80;;;;;;4955411;29;20051;-77
2022/06/12 06:06:52;;;;;;;14.23;3.13;;;13.20;78.40;;;;;;4956628;29;20055;-77
2022/06/12 06:09:21;;;;;;;15.88;3.53;;;13.30;78.10;;;;;;4950306;29;20051;-77
2022/06/12 06:11:48;;;;;;;14.02;3.22;;;13.40;77.70;;;;;;4956092;28;20047;-78
2022/06/12 06:14:16;;;;;;;10.27;3.22;;;13.60;77.40;;;;;;4959595;29;20058;-78
2022/06/12 06:16:45;;;;;;;11.38;2.80;;;13.80;76.60;;;;;;4961648;29;20047;-78
2022/06/12 06:19:15;;;;;;;19.50;3.33;;;13.80;75.00;;;;;;4962221;29;20065;-77
2022/06/12 06:21:42;;;;;;;15.20;3.22;;;13.90;74.50;;;;;;4942478;29;20047;-78
2022/06/12 06:24:11;;;;;;;16.55;3.03;;;14.10;74.20;;;;;;4953252;29;20486;-78
2022/06/12 06:26:40;;;;;;;19.08;3.50;;;14.10;74.00;;;;;;4938637;29;20055;-77
2022/06/12 06:29:08;;;;;;;13.43;2.90;;;14.30;74.00;;;;;;4940839;29;20048;-77
2022/06/12 06:31:36;;;;;;;11.60;2.63;;;14.50;73.70;;;;;;4942417;29;20047;-77
2022/06/12 06:34:04;;;;;;;14.70;3.10;;;14.70;72.90;;;;;;4958826;29;20051;-77
2022/06/12 06:36:32;;;;;;;18.63;3.03;;;14.70;71.40;;;;;;4957662;29;20047;-78
2022/06/12 06:39:00;;;;;;;18.35;3.22;;;14.70;71.20;;;;;;4955956;28;20081;-78
2022/06/12 06:41:29;;;;;;;16.45;3.25;;;14.50;70.60;;;;;;4955569;29;20051;-78
2022/06/12 06:46:43;;;;;;;16.35;2.83;;;14.30;70.70;;;;;;4955487;29;20054;-79
2022/06/12 06:49:19;;;;;;;17.10;3.40;;;14.20;70.70;;;;;;4955430;28;20500;-78
2022/06/12 06:51:47;;;;;;;13.50;2.80;;;14.00;70.50;;;;;;4955300;29;20651;-75
2022/06/12 06:54:15;;;;;;;16.95;3.55;;;14.00;70.60;;;;;;4954180;29;20066;-78
2022/06/12 06:56:44;;;;;;;17.25;3.10;;;14.00;70.70;;;;;;4955124;29;20058;-78
2022/06/12 06:59:12;;;;;;;14.05;2.67;;;14.00;70.30;;;;;;4955260;29;20039;-78
2022/06/12 07:01:39;;;;;;;8.30;1.98;;;14.10;69.60;;;;;;4955400;29;20404;-78
2022/06/12 07:04:07;;;;;;;12.30;2.95;;;14.10;69.40;;;;;;4955281;29;20047;-80
2022/06/12 07:06:35;;;;;;;12.88;2.97;;;14.20;68.80;;;;;;4954711;29;20055;-77
2022/06/12 07:09:03;;;;;;;10.27;2.53;;;14.20;68.70;;;;;;4955309;29;20404;-77
2022/06/12 07:11:32;;;;;;;13.80;2.78;;;14.30;69.00;;;;;;4956138;29;20047;-78
2022/06/12 07:14:00;;;;;;;16.48;2.92;;;14.30;67.90;;;;;;4955234;29;20043;-79
2022/06/12 07:16:31;;;;;;;9.15;2.78;;;14.40;68.10;;;;;;4955000;29;20059;-79
2022/06/12 07:18:59;;;;;;;13.02;2.85;;;14.50;67.60;;;;;;4952106;29;20046;-78
2022/06/12 07:21:27;;;;;;;16.92;3.30;;;14.60;66.80;;;;;;4953598;29;20066;-77
2022/06/12 07:23:55;;;;;;;18.92;3.17;;;14.70;66.60;;;;;;4954520;28;20058;-77
2022/06/12 07:26:29;;;;;;;13.07;3.00;;;14.80;66.50;;;;;;4954686;29;20059;-77
2022/06/12 07:28:57;;;;;;;13.40;2.75;;;14.80;66.00;;;;;;4954749;29;20043;-77
2022/06/12 07:31:25;;;;;;;13.50;3.47;;;14.90;66.00;;;;;;4954519;29;20489;-77
2022/06/12 07:33:52;;;;;;;15.18;3.15;;;14.90;65.90;;;;;;4954773;29;20062;-77
2022/06/12 07:36:24;;;;;;;15.15;2.92;;;14.90;65.00;;;;;;4954594;29;20393;-78
2022/06/12 07:38:52;;;;;;;17.00;3.30;;;14.80;65.40;;;;;;4953191;29;20055;-77
2022/06/12 07:41:40;;;;;;;16.58;2.42;;;14.90;65.40;;;;;;4937324;29;20405;-77
2022/06/12 07:44:08;;;;;;;17.75;3.10;;;14.90;65.10;;;;;;4953467;29;20048;-77
2022/06/12 07:46:36;;;;;;;18.67;3.42;;;14.90;64.90;;;;;;4954079;29;20418;-77
2022/06/12 07:49:03;;;;;;;17.95;2.80;;;14.80;65.00;;;;;;4952820;29;20518;-77
2022/06/12 07:51:31;;;;;;;14.82;2.97;;;14.90;65.50;;;;;;4954242;29;20047;-77
2022/06/12 07:53:59;;;;;;;17.70;3.65;;;15.00;65.30;;;;;;4953383;29;20090;-77
2022/06/12 07:56:27;;;;;;;15.27;2.80;;;15.20;64.20;;;;;;4953883;28;20485;-77
2022/06/12 07:58:55;;;;;;;14.43;2.67;;;15.10;63.30;;;;;;4953716;28;20058;-77
2022/06/12 08:01:26;;;;;;;10.50;2.80;;;15.00;62.30;;;;;;4953738;28;20059;-78
2022/06/12 08:03:54;;;;;;;16.08;3.22;;;14.90;62.80;;;;;;4954335;29;20054;-77
2022/06/12 08:06:23;;;;;;;13.05;2.53;;;14.80;63.20;;;;;;4953930;28;20070;-77
2022/06/12 08:08:51;;;;;;;11.10;2.45;;;14.80;62.30;;;;;;4953967;29;20489;-77
2022/06/12 08:11:21;;;;;;;11.18;3.20;;;14.80;62.60;;;;;;4952591;29;20051;-78
2022/06/12 08:13:49;;;;;;;9.82;2.08;;;14.70;63.20;;;;;;4953043;29;20056;-78
2022/06/12 08:16:17;;;;;;;12.57;2.20;;;14.80;63.40;;;;;;4953909;28;20055;-77
2022/06/12 08:18:45;;;;;;;17.67;3.15;;;14.80;63.20;;;;;;4953557;29;20066;-77
2022/06/12 08:21:15;;;;;;;13.82;2.63;;;14.80;62.60;;;;;;4954293;29;20132;-77
2022/06/12 08:23:52;;;;;;;13.73;2.30;;;14.90;63.10;;;;;;4954344;29;20062;-78
2022/06/12 08:26:28;;;;;;;12.00;2.10;;;15.10;63.00;;;;;;4953938;28;20051;-77
2022/06/12 08:29:00;;;;;;;13.18;3.28;;;15.20;61.50;;;;;;4953872;29;20477;-77
2022/06/12 08:31:32;;;;;;;15.70;3.20;;;15.10;61.90;;;;;;4952543;29;20043;-77
2022/06/12 08:34:06;;;;;;;14.68;2.70;;;15.10;61.60;;;;;;4955076;28;20059;-77
2022/06/12 08:36:35;;;;;;;12.10;2.78;;;15.10;62.20;;;;;;4957663;28;20051;-77
2022/06/12 08:39:04;;;;;;;9.75;2.60;;;15.20;62.10;;;;;;4957304;28;20512;-78
2022/06/12 08:42:02;;;;;;;15.52;3.25;;;15.30;61.90;;;;;;4957489;28;20055;-77
2022/06/12 08:44:51;;;;;;;15.73;2.83;;;15.40;61.80;;;;;;4956440;29;20124;-79
2022/06/12 08:47:25;;;;;;;9.50;2.35;;;15.60;61.10;;;;;;4957130;29;20055;-73
2022/06/12 08:49:52;;;;;;;13.23;2.95;;;15.80;60.80;;;;;;4957448;29;20055;-75
2022/06/12 08:52:32;;;;;;;13.70;3.00;;;16.00;60.50;;;;;;4957718;29;20047;-76
2022/06/12 08:55:12;;;;;;;13.63;2.88;;;16.10;60.30;;;;;;4957452;29;20409;-76
2022/06/12 08:57:49;;;;;;;19.95;2.72;;;16.20;58.70;;;;;;4957480;28;20065;-76
2022/06/12 09:00:21;;;;;;;11.00;2.63;;;16.30;58.40;;;;;;4957606;29;20469;-76
2022/06/12 09:02:50;;;;;;;13.23;2.60;;;16.30;58.40;;;;;;4957217;29;20078;-76
2022/06/12 09:05:26;;;;;;;11.45;2.80;;;16.30;57.20;;;;;;4956710;28;20051;-77
2022/06/12 09:08:25;;;;;;;13.18;2.45;;;16.20;57.50;;;;;;4955758;29;20051;-76
2022/06/12 09:11:01;;;;;;;11.43;2.75;;;16.30;57.80;;;;;;4957291;29;20047;-76
2022/06/12 09:13:50;;;;;;;13.75;3.20;;;16.30;57.10;;;;;;4957242;29;20412;-87
2022/06/12 09:16:21;;;;;;;;;;;16.30;56.70;;;;;;4957305;28;20048;-78
2022/06/12 09:19:15;;;;;;;16.27;3.00;;;16.30;56.80;;;;;;4956078;29;19922;-78
2022/06/12 09:21:49;;;;;;;14.75;3.10;;;16.20;57.20;;;;;;4955884;29;20042;-79
2022/06/12 09:24:23;;;;;;;18.23;2.95;;;16.10;57.90;;;;;;4955815;29;20062;-78
2022/06/12 09:27:03;;;;;;;12.43;3.58;;;16.10;58.30;;;;;;4957085;28;20055;-77
2022/06/12 09:29:30;;;;;;;15.57;3.30;;;16.10;58.30;;;;;;4955064;29;20059;-78
2022/06/12 09:32:26;;;;;;;12.98;2.28;;;16.30;58.00;;;;;;4956429;29;20051;-78
2022/06/12 09:35:31;;;;;;;12.05;2.75;;;16.40;57.60;;;;;;4956764;29;20424;-78
2022/06/12 09:38:26;;;;;;;14.93;2.92;;;16.60;56.50;;;;;;4956376;29;20405;-78
2022/06/12 09:41:12;;;;;;;15.85;3.53;;;16.50;56.10;;;;;;4955772;29;20062;-78
2022/06/12 09:43:48;;;;;;;12.88;2.60;;;16.50;56.90;;;;;;4957083;29;20051;-78
2022/06/12 09:46:24;;;;;;;11.95;2.50;;;16.70;55.40;;;;;;4937629;29;20433;-78
2022/06/12 09:49:16;;;;;;;7.85;2.17;;;16.80;53.10;;;;;;4950768;29;20512;-80
2022/06/12 09:51:52;;;;;;;12.32;2.63;;;16.80;52.90;;;;;;4957387;29;20062;-79
2022/06/12 09:54:42;;;;;;;5.82;1.42;;;16.90;53.30;;;;;;4956699;29;20051;-79
2022/06/12 09:57:45;;;;;;;8.80;2.10;;;17.10;52.00;;;;;;4956697;28;20469;-79
2022/06/12 10:00:28;;;;;;;12.23;1.97;;;17.20;51.80;;;;;;4951816;29;20043;-78
2022/06/12 10:03:10;;;;;;;7.97;1.98;;;17.30;51.90;;;;;;4945650;29;20051;-79
2022/06/12 10:05:56;;;;;;;7.38;1.63;;;17.50;50.20;;;;;;4956585;29;20044;-78
2022/06/12 10:08:49;;;;;;;10.50;1.80;;;17.60;49.60;;;;;;4956142;29;20055;-80
2022/06/12 10:11:33;;;;;;;7.57;2.17;;;17.70;49.60;;;;;;4955565;29;20527;-79
2022/06/12 10:14:04;;;;;;;;;;;17.70;48.70;;;;;;4956326;28;20312;-78
2022/06/12 10:16:36;;;;;;;8.23;1.90;;;17.60;48.70;;;;;;4955816;29;19923;-79
2022/06/12 10:19:48;;;;;;;15.40;2.45;;;17.50;48.80;;;;;;4938338;29;20043;-79
2022/06/12 10:22:37;;;;;;;10.55;2.58;;;17.50;49.40;;;;;;4948333;29;20063;-79
2022/06/12 10:25:08;;;;;;;7.38;1.80;;;17.70;48.80;;;;;;4948808;29;20044;-79
2022/06/12 10:27:50;;;;;;;8.77;2.08;;;17.90;48.10;;;;;;4956178;29;20043;-76
2022/06/12 10:30:40;;;;;;;9.38;1.58;;;18.10;47.40;;;;;;4948317;28;20051;-77
2022/06/12 10:33:08;;;;;;;9.05;1.70;;;18.20;46.30;;;;;;4934325;29;20060;-77
2022/06/12 10:36:06;;;;;;;9.23;1.80;;;18.20;44.90;;;;;;4937516;29;20406;-77
2022/06/12 10:38:36;;;;;;;11.20;2.10;;;18.00;45.50;;;;;;4949929;29;20050;-78
2022/06/12 10:41:07;;;;;;;7.10;1.75;;;18.10;45.10;;;;;;4954294;29;20059;-78
2022/06/12 10:43:39;;;;;;;9.60;1.83;;;18.40;45.40;;;;;;4955172;29;20047;-78
2022/06/12 10:46:30;;;;;;;8.90;2.28;;;18.60;44.70;;;;;;4957527;29;20416;-77
2022/06/12 10:49:02;;;;;;;9.82;1.90;;;18.70;44.00;;;;;;4947507;29;20386;-78
2022/06/12 10:51:41;;;;;;;8.60;2.00;;;18.80;43.60;;;;;;4955586;29;20063;-78
2022/06/12 10:54:21;;;;;;;8.13;1.63;;;18.70;43.00;;;;;;4955129;29;20401;-78
2022/06/12 10:57:15;;;;;;;9.35;1.80;;;18.50;43.70;;;;;;4949209;29;20048;-78
2022/06/12 11:00:01;;;;;;;9.60;1.73;;;18.40;44.60;;;;;;4954413;28;20070;-78
2022/06/12 11:02:51;;;;;;;8.63;2.22;;;18.40;44.80;;;;;;4954961;28;20501;-77
2022/06/12 11:05:37;;;;;;;8.00;1.55;;;18.40;44.80;;;;;;4955491;29;20214;-78
2022/06/12 11:08:26;;;;;;;5.28;2.20;;;18.60;44.10;;;;;;4955486;29;20388;-78
2022/06/12 11:11:09;;;;;;;8.85;2.20;;;18.80;44.10;;;;;;4954596;29;20047;-77
2022/06/12 11:13:59;;;;;;;8.50;1.90;;;18.90;43.70;;;;;;4952987;29;20520;-78
2022/06/12 11:16:32;;;;;;;8.65;1.60;;;19.00;42.40;;;;;;4937103;29;20063;-78
2022/06/12 11:19:20;;;;;;;8.25;1.58;;;19.10;42.40;;;;;;4934639;29;20047;-77
2022/06/12 11:21:54;;;;;;;7.07;1.80;;;19.10;42.00;;;;;;4935650;29;20494;-77
2022/06/12 11:24:33;;;;;;;10.35;2.45;;;19.10;41.90;;;;;;4942809;29;20047;-77
2022/06/12 11:27:16;;;;;;;7.82;1.52;;;18.80;42.20;;;;;;4954464;29;20377;-77
2022/06/12 11:29:56;;;;;;;8.82;1.50;;;18.70;42.90;;;;;;4947976;29;20052;-77
2022/06/12 11:32:42;;;;;;;6.13;1.42;;;18.80;43.20;;;;;;4935124;29;20062;-77
2022/06/12 11:35:36;;;;;;;8.15;2.00;;;18.90;42.40;;;;;;4944344;29;20047;-78
2022/06/12 11:38:35;;;;;;;10.43;1.95;;;19.10;42.90;;;;;;4950870;29;20066;-77
2022/06/12 11:41:20;;;;;;;10.02;1.90;;;19.30;42.60;;;;;;4947378;29;20396;-76
2022/06/12 11:44:40;;;;;;;8.07;2.10;;;19.50;42.80;;;;;;4954671;29;20051;-77
2022/06/12 11:47:13;;;;;;;9.35;2.00;;;19.70;41.70;;;;;;4948324;29;20464;-77
2022/06/12 11:49:46;;;;;;;9.98;1.92;;;19.70;41.20;;;;;;4952904;29;20098;-77
2022/06/12 11:52:28;;;;;;;14.45;1.80;;;19.50;41.80;;;;;;4952675;29;20366;-77
2022/06/12 11:55:18;;;;;;;10.13;2.45;;;19.40;42.60;;;;;;4952080;29;20386;-77
2022/06/12 11:58:50;;;;;;;7.80;1.52;;;19.30;42.90;;;;;;4952914;29;20054;-77
2022/06/12 12:01:27;;;;;;;8.07;1.95;;;19.50;42.90;;;;;;4872124;29;20041;-78
2022/06/12 12:04:21;;;;;;;9.93;1.92;;;20.00;42.70;;;;;;4876081;29;20515;-77
2022/06/12 12:06:51;;;;;;;6.88;1.77;;;20.60;41.20;;;;;;4875447;29;20539;-78
2022/06/12 12:09:38;;;;;;;7.07;1.73;;;20.90;39.50;;;;;;4861017;29;20515;-77
2022/06/12 12:12:17;;;;;;;8.63;1.83;;;20.80;39.20;;;;;;4860171;29;20057;-77
2022/06/12 12:14:47;;;;;;;7.18;1.88;;;20.90;39.10;;;;;;4860536;29;20057;-77
2022/06/12 12:17:32;;;;;;;8.60;2.08;;;20.80;38.30;;;;;;4857767;29;20077;-80
2022/06/12 12:20:05;;;;;;;10.43;2.13;;;20.70;39.50;;;;;;4860642;29;20057;-77
2022/06/12 12:22:40;;;;;;;10.37;2.00;;;20.40;38.80;;;;;;4876788;29;20056;-78
2022/06/12 12:25:22;;;;;;;9.02;1.80;;;20.10;39.60;;;;;;4860019;29;20534;-78
2022/06/12 12:27:53;;;;;;;7.03;1.48;;;19.80;40.40;;;;;;4845426;29;20551;-78
2022/06/12 12:30:38;;;;;;;10.98;2.35;;;19.90;40.70;;;;;;4876468;29;20056;-78
2022/06/12 12:33:15;;;;;;;6.60;1.77;;;19.80;40.90;;;;;;4940535;29;20047;-79
2022/06/12 12:41:26;;;;;;;5.55;1.83;;;19.80;41.30;;;;;;4953322;29;20113;-80
2022/06/12 12:43:59;;;;;;;4.93;1.50;;;19.70;42.30;;;;;;4954145;28;20413;-78
2022/06/12 12:46:48;;;;;;;8.70;1.75;;;19.30;42.00;;;;;;4952400;29;20043;-79
2022/06/12 12:49:28;;;;;;;10.68;2.28;;;18.90;42.80;;;;;;4938907;29;20531;-79
2022/06/12 12:52:08;;;;;;;7.68;2.33;;;18.60;43.70;;;;;;4935796;29;20055;-79
2022/06/12 12:54:49;;;;;;;8.80;2.03;;;18.40;44.60;;;;;;4945312;29;20148;-78
2022/06/12 12:57:39;;;;;;;10.00;1.88;;;18.30;44.30;;;;;;4949471;29;20364;-78
2022/06/12 13:00:23;;;;;;;11.68;2.00;;;18.40;44.30;;;;;;4949650;29;20047;-76
2022/06/12 13:03:10;;;;;;;6.15;1.50;;;18.60;44.00;;;;;;4953668;29;20445;-77
2022/06/12 13:05:39;;;;;;;7.30;1.75;;;18.70;43.30;;;;;;4944417;29;20051;-78
2022/06/12 13:08:25;;;;;;;7.60;1.55;;;18.80;42.80;;;;;;4938268;29;20039;-78
2022/06/12 13:11:23;;;;;;;10.13;1.57;;;19.00;42.40;;;;;;4952160;29;20044;-80
2022/06/12 13:14:02;;;;;;;6.13;1.65;;;19.40;42.10;;;;;;4952726;29;20059;-78
2022/06/12 13:17:00;;;;;;;6.28;1.60;;;20.00;40.70;;;;;;4953518;29;20044;-78
2022/06/12 13:19:44;;;;;;;6.35;1.80;;;20.30;40.20;;;;;;4951376;29;20051;-78
2022/06/12 13:22:47;;;;;;;5.45;1.50;;;20.80;38.90;;;;;;4952376;28;20058;-79
2022/06/12 13:25:43;;;;;;;5.68;1.45;;;20.80;37.90;;;;;;4942212;29;20047;-79
2022/06/12 13:28:32;;;;;;;4.18;1.35;;;20.70;38.60;;;;;;4956568;29;20382;-77
2022/06/12 13:31:02;;;;;;;5.90;1.48;;;20.80;37.30;;;;;;4954602;29;20070;-77
2022/06/12 13:33:35;;;;;;;4.20;1.23;;;20.70;37.90;;;;;;4956896;29;20408;-78
2022/06/12 13:36:11;;;;;;;6.75;1.48;;;20.60;38.50;;;;;;4939721;29;20055;-77
2022/06/12 13:39:04;;;;;;;4.80;1.27;;;20.50;39.40;;;;;;4956209;29;20046;-78
2022/06/12 13:41:40;;;;;;;5.22;1.63;;;20.60;39.10;;;;;;4955569;29;20051;-78
2022/06/12 13:44:21;;;;;;;6.10;1.60;;;20.50;38.90;;;;;;4956493;29;20405;-79
2022/06/12 13:46:50;;;;;;;5.57;1.77;;;20.40;39.60;;;;;;4954328;29;20058;-79
2022/06/12 13:49:44;;;;;;;8.82;1.85;;;20.30;40.20;;;;;;4955782;28;20090;-80